Time;durP1;ratioP1;P1;durP2;ratioP2;P2;SDS_P1;SDS_P2;PMS_P1;PMS_P2;Temp;Humidity;BMP_temperature;BMP_pressure;BME280_temperature;BME280_humidity;BME280_pressure;Samples;Min_cycle;Max_cycle;Signal;HPM_P1;HPM_P2
2022/05/14 00:01:14;;;;;;;1.40;0.97;;;25.20;56.70;;;;;;5074159;28;20459;-84
2022/05/14 00:03:43;;;;;;;1.40;1.17;;;25.20;56.60;;;;;;5074083;28;20468;-83
2022/05/14 00:06:12;;;;;;;1.20;1.10;;;25.20;56.60;;;;;;5074148;28;20441;-83
2022/05/14 00:08:40;;;;;;;1.33;1.23;;;25.20;56.60;;;;;;5056012;28;20475;-85
2022/05/14 00:13:52;;;;;;;1.10;1.00;;;25.20;56.60;;;;;;5073592;28;20467;-83
2022/05/14 00:16:20;;;;;;;1.20;0.97;;;25.20;56.60;;;;;;5073715;28;20443;-83
2022/05/14 00:18:51;;;;;;;1.60;1.10;;;25.20;56.60;;;;;;5073690;28;20457;-84
2022/05/14 00:21:19;;;;;;;1.40;1.30;;;25.20;56.60;;;;;;5073727;28;20491;-83
2022/05/14 00:23:47;;;;;;;1.30;1.10;;;25.20;56.60;;;;;;5056073;28;20807;-83
2022/05/14 00:26:14;;;;;;;1.40;1.00;;;25.20;56.60;;;;;;5073635;28;20441;-83
2022/05/14 00:28:41;;;;;;;1.30;1.20;;;25.20;56.60;;;;;;5073641;28;20437;-83
2022/05/14 00:31:09;;;;;;;1.20;1.00;;;25.20;56.60;;;;;;5073527;28;20444;-85
2022/05/14 00:33:36;;;;;;;1.10;1.00;;;25.20;56.60;;;;;;5073396;28;20484;-83
2022/05/14 00:36:05;;;;;;;1.20;1.00;;;25.20;56.60;;;;;;5073547;28;20452;-83
2022/05/14 00:38:32;;;;;;;1.30;0.90;;;25.20;56.60;;;;;;5073420;28;20432;-84
2022/05/14 00:41:01;;;;;;;1.10;1.00;;;25.20;56.60;;;;;;5073640;28;20440;-84
2022/05/14 00:43:28;;;;;;;1.30;1.20;;;25.30;56.60;;;;;;5073706;28;20434;-83
2022/05/14 00:45:59;;;;;;;1.40;1.10;;;25.20;56.60;;;;;;5055412;28;20433;-83
2022/05/14 00:48:34;;;;;;;1.10;1.00;;;25.20;56.60;;;;;;5073348;28;20457;-84
2022/05/14 00:51:01;;;;;;;1.30;1.20;;;25.20;56.60;;;;;;5073363;28;20447;-83
2022/05/14 00:53:33;;;;;;;1.20;1.00;;;25.20;56.60;;;;;;5073104;28;20445;-83
2022/05/14 00:56:04;;;;;;;1.20;1.00;;;25.20;56.60;;;;;;5073296;28;20455;-83
2022/05/14 00:58:36;;;;;;;1.20;1.10;;;25.20;56.60;;;;;;5073365;28;20447;-83
2022/05/14 01:01:03;;;;;;;1.30;0.97;;;25.20;56.60;;;;;;5073254;28;20444;-83
2022/05/14 01:03:30;;;;;;;1.40;1.10;;;25.20;56.60;;;;;;5073263;28;20463;-83
2022/05/14 01:05:59;;;;;;;1.10;1.00;;;25.20;56.60;;;;;;5073147;28;20451;-83
2022/05/14 01:08:26;;;;;;;1.17;1.03;;;25.20;56.60;;;;;;5055204;28;20854;-83
2022/05/14 01:10:55;;;;;;;1.37;1.27;;;25.20;56.60;;;;;;5055400;28;20514;-83
2022/05/14 01:13:22;;;;;;;1.20;1.00;;;25.20;56.60;;;;;;5073023;28;20452;-83
2022/05/14 01:15:51;;;;;;;1.40;1.20;;;25.30;56.70;;;;;;5072855;28;20971;-83
2022/05/14 01:18:20;;;;;;;1.40;1.30;;;25.20;56.60;;;;;;5073057;28;20969;-83
2022/05/14 01:20:52;;;;;;;1.30;1.00;;;25.20;56.60;;;;;;5073182;28;20437;-83
2022/05/14 01:23:28;;;;;;;1.90;1.30;;;25.20;56.60;;;;;;5077415;28;20447;-83
2022/05/14 01:26:29;;;;;;;1.43;1.23;;;25.20;56.60;;;;;;5077231;28;20440;-83
2022/05/14 01:28:58;;;;;;;1.30;1.07;;;25.20;56.60;;;;;;5077062;28;20447;-83
2022/05/14 01:31:25;;;;;;;1.10;0.93;;;25.20;56.60;;;;;;5076979;28;20445;-83
2022/05/14 01:33:52;;;;;;;1.33;1.23;;;25.20;56.60;;;;;;5076740;28;20482;-83
2022/05/14 01:36:19;;;;;;;1.30;1.20;;;25.20;56.60;;;;;;5076979;28;20441;-83
2022/05/14 01:38:46;;;;;;;1.27;1.10;;;25.20;56.60;;;;;;5059092;28;20444;-83
2022/05/14 01:41:14;;;;;;;1.80;1.30;;;25.20;56.60;;;;;;5076856;28;20444;-83
2022/05/14 01:43:41;;;;;;;1.30;1.20;;;25.20;56.60;;;;;;5076790;28;20795;-83
2022/05/14 01:46:08;;;;;;;1.27;0.97;;;25.20;56.60;;;;;;5076763;28;20444;-83
2022/05/14 01:51:57;;;;;;;1.10;1.00;;;25.20;56.50;;;;;;5076339;28;20400;-83
2022/05/14 01:54:24;;;;;;;1.00;0.90;;;25.10;56.60;;;;;;5076522;28;20482;-83
2022/05/14 01:56:52;;;;;;;1.23;1.13;;;25.10;56.60;;;;;;5076420;28;20447;-83
2022/05/14 01:59:18;;;;;;;1.30;1.20;;;25.20;56.60;;;;;;5076430;28;20440;-83
2022/05/14 02:01:45;;;;;;;1.70;1.07;;;25.20;57.00;;;;;;5076587;28;20440;-83
2022/05/14 02:04:14;;;;;;;1.30;1.20;;;25.20;57.20;;;;;;5076372;28;20491;-83
2022/05/14 02:06:42;;;;;;;1.50;1.40;;;25.20;56.60;;;;;;5076234;28;20445;-83
2022/05/14 02:09:11;;;;;;;1.43;1.30;;;25.20;56.60;;;;;;5076268;28;20448;-83
2022/05/14 02:11:39;;;;;;;1.20;1.10;;;25.20;56.60;;;;;;5076051;28;20453;-84
2022/05/14 02:14:09;;;;;;;1.77;1.30;;;25.20;56.60;;;;;;5075899;28;20520;-83
2022/05/14 02:16:36;;;;;;;1.43;1.17;;;25.10;56.60;;;;;;5076119;28;20768;-83
2022/05/14 02:19:04;;;;;;;1.30;1.20;;;25.10;56.60;;;;;;5076032;28;20468;-83
2022/05/14 02:21:32;;;;;;;1.40;1.27;;;25.10;56.60;;;;;;5076094;28;20441;-83
2022/05/14 02:24:00;;;;;;;1.40;1.30;;;25.10;56.60;;;;;;5076068;28;20798;-83
2022/05/14 02:26:27;;;;;;;1.30;1.00;;;25.10;56.60;;;;;;5075878;28;20951;-83
2022/05/14 02:28:54;;;;;;;1.50;1.07;;;25.10;57.10;;;;;;5075956;28;20447;-83
2022/05/14 02:31:22;;;;;;;1.40;1.30;;;25.10;56.60;;;;;;5075776;28;20440;-83
2022/05/14 02:33:49;;;;;;;1.60;1.10;;;25.10;56.60;;;;;;5075816;28;20495;-83
2022/05/14 02:36:16;;;;;;;1.17;1.00;;;25.10;56.60;;;;;;5075766;28;20507;-83
2022/05/14 02:38:43;;;;;;;1.20;1.00;;;25.10;56.60;;;;;;5075802;28;20437;-83
2022/05/14 02:41:10;;;;;;;1.20;1.10;;;25.10;56.60;;;;;;5075691;28;20441;-83
2022/05/14 02:43:37;;;;;;;1.20;1.10;;;25.10;56.60;;;;;;5075584;28;20436;-83
2022/05/14 02:46:06;;;;;;;1.40;1.10;;;25.10;56.60;;;;;;5075550;28;20479;-83
2022/05/14 02:48:35;;;;;;;1.40;1.30;;;25.10;56.50;;;;;;5075437;28;20457;-83
2022/05/14 02:51:02;;;;;;;1.30;0.90;;;25.10;56.60;;;;;;5075617;28;20436;-83
2022/05/14 02:53:29;;;;;;;1.10;1.00;;;25.10;56.60;;;;;;5075631;28;20791;-83
2022/05/14 02:55:56;;;;;;;1.23;1.13;;;25.10;56.60;;;;;;5075213;28;21010;-84
2022/05/14 03:01:04;;;;;;;1.33;1.23;;;25.10;56.60;;;;;;5074429;28;20495;-83
2022/05/14 03:03:31;;;;;;;1.53;1.23;;;25.10;56.60;;;;;;5075343;28;20444;-83
2022/05/14 03:06:00;;;;;;;1.50;1.40;;;25.10;56.60;;;;;;5075298;28;20437;-83
2022/05/14 03:08:27;;;;;;;1.80;1.30;;;25.10;56.60;;;;;;5075296;28;20483;-83
2022/05/14 03:10:54;;;;;;;1.20;1.00;;;25.10;56.60;;;;;;5074700;28;20935;-83
2022/05/14 03:13:21;;;;;;;1.40;1.20;;;25.10;56.60;;;;;;5075119;28;20447;-83
2022/05/14 03:15:48;;;;;;;1.27;1.13;;;25.10;56.60;;;;;;5074813;28;20497;-83
2022/05/14 03:18:14;;;;;;;1.17;1.07;;;25.10;56.60;;;;;;5075143;28;20465;-83
2022/05/14 03:20:41;;;;;;;1.37;1.00;;;25.00;56.60;;;;;;5075028;28;20433;-83
2022/05/14 03:23:09;;;;;;;1.50;1.20;;;25.10;56.60;;;;;;5057099;28;20437;-85
2022/05/14 03:25:36;;;;;;;1.13;1.03;;;25.00;56.60;;;;;;5074948;28;20452;-83
2022/05/14 03:28:03;;;;;;;1.17;1.07;;;25.10;56.60;;;;;;5075034;28;20441;-83
2022/05/14 03:30:30;;;;;;;1.30;1.10;;;25.00;56.60;;;;;;5074805;28;20433;-83
2022/05/14 03:32:57;;;;;;;1.30;1.10;;;25.00;56.60;;;;;;5074744;28;20455;-83
2022/05/14 03:35:24;;;;;;;1.30;1.20;;;25.00;56.60;;;;;;5074576;28;20476;-83
2022/05/14 03:37:50;;;;;;;1.80;1.10;;;25.00;56.60;;;;;;5074701;28;20440;-83
2022/05/14 03:40:18;;;;;;;1.10;0.93;;;25.10;56.60;;;;;;5074513;28;20448;-83
2022/05/14 03:42:45;;;;;;;1.30;1.20;;;25.10;56.60;;;;;;5074615;28;20441;-83
2022/05/14 03:45:12;;;;;;;1.30;1.20;;;25.00;56.60;;;;;;5073828;28;20924;-83
2022/05/14 03:47:39;;;;;;;1.40;1.30;;;25.00;56.50;;;;;;5074438;28;20861;-83
2022/05/14 03:50:06;;;;;;;1.60;1.10;;;25.00;56.60;;;;;;5074358;28;20441;-83
2022/05/14 03:52:33;;;;;;;1.40;1.30;;;25.00;56.60;;;;;;5074257;28;20950;-83
2022/05/14 03:55:00;;;;;;;1.23;1.00;;;25.00;56.60;;;;;;5074238;28;20990;-84
2022/05/14 03:57:28;;;;;;;1.00;0.90;;;25.00;56.60;;;;;;5074159;28;20444;-83
2022/05/14 03:59:55;;;;;;;1.43;1.33;;;25.00;56.60;;;;;;5074114;28;20445;-83
2022/05/14 04:02:21;;;;;;;1.20;1.00;;;25.00;56.60;;;;;;5074143;28;20448;-83
2022/05/14 04:04:48;;;;;;;1.10;1.00;;;25.00;56.50;;;;;;5073990;28;20958;-83
2022/05/14 04:07:15;;;;;;;1.40;1.30;;;25.00;56.50;;;;;;5073930;28;20452;-84
2022/05/14 04:09:42;;;;;;;1.30;1.10;;;25.00;56.50;;;;;;5056145;28;20448;-84
2022/05/14 04:12:09;;;;;;;1.20;1.00;;;25.00;56.50;;;;;;5074035;28;20962;-83
2022/05/14 04:14:37;;;;;;;1.10;1.00;;;25.00;56.50;;;;;;5073709;28;20484;-84
2022/05/14 04:17:05;;;;;;;1.30;1.10;;;25.00;56.60;;;;;;5073749;28;20480;-83
2022/05/14 04:19:32;;;;;;;1.30;1.10;;;25.00;56.60;;;;;;5073790;28;20563;-84
2022/05/14 04:21:59;;;;;;;1.50;1.23;;;25.00;56.60;;;;;;5073774;28;20437;-83
2022/05/14 04:24:27;;;;;;;1.40;1.27;;;25.00;56.60;;;;;;5073687;28;20780;-83
2022/05/14 04:26:54;;;;;;;1.60;1.20;;;25.00;56.60;;;;;;5073661;28;21031;-83
2022/05/14 04:29:21;;;;;;;1.40;1.00;;;25.00;56.60;;;;;;5073676;28;20487;-83
2022/05/14 04:31:49;;;;;;;1.20;1.03;;;25.00;56.60;;;;;;5073604;28;20947;-84
2022/05/14 04:34:18;;;;;;;1.43;1.10;;;25.00;56.60;;;;;;5073700;28;20433;-84
2022/05/14 04:36:44;;;;;;;1.20;1.10;;;25.00;56.60;;;;;;5073491;28;20488;-83
2022/05/14 04:39:11;;;;;;;1.23;1.13;;;25.00;56.50;;;;;;5073420;28;20441;-83
2022/05/14 04:41:38;;;;;;;1.57;1.30;;;25.00;56.60;;;;;;5073591;28;20436;-87
2022/05/14 04:44:05;;;;;;;1.40;1.27;;;25.00;56.60;;;;;;5073371;28;20441;-83
2022/05/14 04:46:35;;;;;;;1.20;1.00;;;25.00;56.60;;;;;;5073245;28;20433;-83
2022/05/14 04:49:04;;;;;;;1.20;1.10;;;25.00;56.50;;;;;;5073454;28;20441;-84
2022/05/14 04:51:31;;;;;;;1.20;1.00;;;25.00;56.50;;;;;;5073219;28;20478;-84
2022/05/14 04:53:57;;;;;;;1.10;1.00;;;25.10;56.60;;;;;;5073321;28;20441;-83
2022/05/14 04:56:24;;;;;;;1.17;1.00;;;25.00;56.50;;;;;;5072295;28;20484;-84
2022/05/14 04:58:51;;;;;;;1.20;1.10;;;25.00;56.50;;;;;;5073518;28;20444;-84
2022/05/14 05:01:18;;;;;;;1.10;0.90;;;25.00;56.50;;;;;;5073222;28;20943;-84
2022/05/14 05:03:43;;;;;;;1.53;1.10;;;25.00;56.50;;;;;;5073116;28;20519;-83
2022/05/14 05:06:14;;;;;;;1.40;1.03;;;25.00;56.50;;;;;;5073216;28;20563;-83
2022/05/14 05:08:42;;;;;;;1.20;1.10;;;25.00;56.50;;;;;;5073238;28;20303;-83
2022/05/14 05:11:09;;;;;;;1.20;1.00;;;25.00;56.50;;;;;;5073165;28;20513;-84
2022/05/14 05:13:37;;;;;;;1.20;1.10;;;25.00;56.50;;;;;;5073136;28;20441;-84
2022/05/14 05:16:04;;;;;;;1.30;1.00;;;25.00;56.50;;;;;;5072956;28;20484;-83
2022/05/14 05:18:31;;;;;;;1.20;1.10;;;25.00;56.50;;;;;;5073058;28;20993;-83
2022/05/14 05:20:58;;;;;;;1.00;0.90;;;25.00;56.50;;;;;;5072965;28;20445;-83
2022/05/14 05:23:27;;;;;;;1.30;1.10;;;25.00;56.50;;;;;;5073112;28;20444;-83
2022/05/14 05:25:55;;;;;;;1.10;1.00;;;25.00;56.50;;;;;;5072935;28;20441;-83
2022/05/14 05:28:22;;;;;;;1.43;1.33;;;25.00;56.50;;;;;;5073007;28;20440;-83
2022/05/14 05:30:50;;;;;;;1.20;1.10;;;25.00;56.50;;;;;;5072794;28;20440;-84
2022/05/14 05:33:20;;;;;;;1.10;1.00;;;25.00;56.50;;;;;;5072889;28;20444;-83
2022/05/14 05:35:47;;;;;;;1.10;0.97;;;25.00;56.50;;;;;;5072821;28;20488;-83
2022/05/14 05:38:14;;;;;;;1.07;0.97;;;25.00;56.50;;;;;;5073051;28;20446;-83
2022/05/14 05:40:42;;;;;;;2.10;1.10;;;25.00;56.50;;;;;;5072874;28;20437;-83
2022/05/14 05:43:11;;;;;;;1.20;1.10;;;25.20;56.60;;;;;;5072865;28;20444;-84
2022/05/14 05:45:40;;;;;;;1.17;1.07;;;25.00;56.50;;;;;;5072798;28;20436;-84
2022/05/14 05:48:08;;;;;;;1.27;1.10;;;25.00;56.50;;;;;;5072688;28;20461;-83
2022/05/14 05:50:37;;;;;;;1.40;1.03;;;25.10;56.50;;;;;;5072644;28;20838;-82
2022/05/14 05:53:05;;;;;;;1.33;1.03;;;25.00;56.50;;;;;;5072663;28;20440;-82
2022/05/14 05:58:19;;;;;;;1.30;0.90;;;25.00;56.50;;;;;;5072928;28;20550;-82
2022/05/14 06:00:46;;;;;;;1.63;1.20;;;25.00;56.50;;;;;;5072582;28;20463;-82
2022/05/14 06:03:13;;;;;;;1.27;1.17;;;25.00;56.40;;;;;;5072683;28;20852;-83
2022/05/14 06:05:41;;;;;;;1.50;1.40;;;25.00;56.50;;;;;;5072997;28;20840;-82
2022/05/14 06:08:09;;;;;;;1.40;1.20;;;25.10;56.50;;;;;;5074702;28;20849;-82
2022/05/14 06:10:36;;;;;;;1.30;1.13;;;25.00;56.50;;;;;;5076141;28;20867;-82
2022/05/14 06:13:03;;;;;;;1.20;1.10;;;25.00;56.50;;;;;;5076225;28;20433;-82
2022/05/14 06:15:31;;;;;;;1.20;1.00;;;25.00;56.50;;;;;;5074910;28;20507;-82
2022/05/14 06:18:01;;;;;;;1.40;1.20;;;25.00;56.50;;;;;;5074870;28;20460;-85
2022/05/14 06:20:29;;;;;;;1.13;1.03;;;25.00;56.50;;;;;;5075174;28;20448;-83
2022/05/14 06:22:56;;;;;;;1.23;1.10;;;25.00;56.50;;;;;;5074898;28;20460;-82
2022/05/14 06:25:23;;;;;;;1.10;0.90;;;25.00;56.50;;;;;;5074715;28;20437;-83
2022/05/14 06:27:50;;;;;;;1.10;0.90;;;25.00;56.50;;;;;;5074722;28;21046;-82
2022/05/14 06:30:17;;;;;;;1.20;1.00;;;25.00;56.50;;;;;;5074628;28;20440;-82
2022/05/14 06:32:45;;;;;;;1.20;0.93;;;25.00;56.50;;;;;;5074749;28;20440;-82
2022/05/14 06:35:12;;;;;;;1.10;1.00;;;25.00;56.50;;;;;;5074703;28;20440;-83
2022/05/14 06:37:39;;;;;;;1.60;1.00;;;25.00;56.40;;;;;;5074648;28;20444;-82
2022/05/14 06:40:07;;;;;;;1.30;1.20;;;25.00;56.40;;;;;;5074766;28;20819;-82
2022/05/14 06:42:36;;;;;;;1.20;1.10;;;25.00;56.40;;;;;;5074651;28;20444;-82
2022/05/14 06:45:03;;;;;;;1.00;0.90;;;25.00;56.40;;;;;;5074462;28;20916;-82
2022/05/14 06:47:30;;;;;;;1.07;0.90;;;25.00;56.50;;;;;;5074513;28;20465;-82
2022/05/14 06:49:58;;;;;;;1.30;1.20;;;25.10;56.40;;;;;;5074394;28;20441;-83
2022/05/14 06:52:25;;;;;;;1.20;1.00;;;25.10;56.50;;;;;;5074524;28;20441;-82
2022/05/14 06:54:54;;;;;;;1.20;0.90;;;25.00;56.40;;;;;;5074338;28;20460;-83
2022/05/14 06:57:21;;;;;;;1.20;1.10;;;25.00;56.40;;;;;;5074236;28;20484;-82
2022/05/14 06:59:48;;;;;;;1.00;0.90;;;25.00;56.40;;;;;;5074293;28;20433;-82
2022/05/14 07:02:15;;;;;;;1.20;1.00;;;25.10;56.40;;;;;;5074285;28;20437;-82
2022/05/14 07:07:28;;;;;;;1.20;1.10;;;25.10;56.40;;;;;;5074386;28;20431;-83
2022/05/14 07:09:55;;;;;;;1.30;1.10;;;25.10;56.40;;;;;;5074104;28;20447;-83
2022/05/14 07:12:22;;;;;;;1.43;1.00;;;25.10;56.40;;;;;;5074330;28;20506;-82
2022/05/14 07:14:49;;;;;;;1.20;1.03;;;25.10;56.40;;;;;;5037149;28;1056589;-83
2022/05/14 07:17:16;;;;;;;1.30;1.20;;;25.10;56.40;;;;;;5074959;28;20226;-82
2022/05/14 07:19:43;;;;;;;1.00;0.90;;;25.10;56.40;;;;;;5074095;28;20808;-83
2022/05/14 07:22:13;;;;;;;1.10;0.90;;;25.10;56.40;;;;;;5074927;28;20436;-85
2022/05/14 07:24:42;;;;;;;1.13;1.03;;;25.10;56.40;;;;;;5074997;28;20854;-82
2022/05/14 07:27:11;;;;;;;1.20;0.90;;;25.10;56.40;;;;;;5074782;28;20795;-82
2022/05/14 07:29:40;;;;;;;1.17;1.07;;;25.10;56.30;;;;;;5074934;28;20492;-83
2022/05/14 07:32:07;;;;;;;1.60;1.40;;;25.10;56.30;;;;;;5074766;28;20447;-82
2022/05/14 07:34:34;;;;;;;2.23;0.97;;;25.10;56.30;;;;;;5074911;28;20847;-82
2022/05/14 07:37:05;;;;;;;1.20;0.90;;;25.20;56.30;;;;;;5074608;28;20809;-82
2022/05/14 07:39:36;;;;;;;1.10;1.00;;;25.20;56.30;;;;;;5074718;28;20551;-83
2022/05/14 07:42:07;;;;;;;1.20;1.10;;;25.20;56.30;;;;;;5074845;28;20448;-82
2022/05/14 07:44:40;;;;;;;1.10;0.93;;;25.20;56.30;;;;;;5074697;28;20455;-82
2022/05/14 07:47:08;;;;;;;1.60;1.00;;;25.20;56.30;;;;;;5074349;28;20822;-82
2022/05/14 07:49:35;;;;;;;1.10;0.97;;;25.20;56.30;;;;;;5074350;28;20441;-84
2022/05/14 07:52:02;;;;;;;1.30;1.20;;;25.20;56.30;;;;;;5074348;28;20441;-82
2022/05/14 07:54:29;;;;;;;2.50;1.20;;;25.20;56.30;;;;;;5074389;28;20433;-82
2022/05/14 07:56:56;;;;;;;1.07;0.80;;;25.20;56.30;;;;;;5074126;28;21017;-82
2022/05/14 07:59:24;;;;;;;1.10;0.97;;;25.20;56.30;;;;;;5074329;28;20441;-82
2022/05/14 08:01:51;;;;;;;1.60;1.47;;;25.40;56.50;;;;;;5074139;28;20436;-83
2022/05/14 08:04:18;;;;;;;1.20;1.10;;;25.30;56.40;;;;;;5074253;28;20436;-83
2022/05/14 08:06:44;;;;;;;1.40;1.00;;;25.30;56.40;;;;;;5073952;28;20802;-82
2022/05/14 08:09:11;;;;;;;1.10;0.90;;;25.30;56.40;;;;;;5073926;28;20432;-82
2022/05/14 08:11:38;;;;;;;1.17;1.07;;;25.30;56.40;;;;;;5073853;28;20437;-82
2022/05/14 08:14:05;;;;;;;1.13;1.00;;;25.30;56.40;;;;;;5073663;28;20472;-83
2022/05/14 08:16:33;;;;;;;1.20;1.00;;;25.30;56.40;;;;;;5073857;28;20483;-82
2022/05/14 08:19:00;;;;;;;1.30;1.10;;;25.30;56.40;;;;;;5073769;28;20921;-82
2022/05/14 08:27:00;;;;;;;1.40;0.93;;;25.30;56.40;;;;;;5073702;28;20547;-82
2022/05/14 08:29:27;;;;;;;1.00;0.90;;;25.40;56.50;;;;;;5073680;28;20436;-83
2022/05/14 08:31:55;;;;;;;1.30;1.20;;;25.40;56.50;;;;;;5073443;28;20800;-82
2022/05/14 08:34:22;;;;;;;1.07;0.97;;;25.40;56.50;;;;;;5073455;28;20432;-83
2022/05/14 08:36:48;;;;;;;1.10;1.00;;;25.40;56.50;;;;;;5073590;28;20810;-82
2022/05/14 08:39:16;;;;;;;1.20;1.10;;;25.50;56.60;;;;;;5073696;28;20437;-82
2022/05/14 08:41:47;;;;;;;1.60;1.23;;;25.50;56.60;;;;;;5073563;28;20506;-83
2022/05/14 08:44:18;;;;;;;1.10;1.00;;;25.50;56.60;;;;;;5073444;28;20479;-82
2022/05/14 08:46:46;;;;;;;1.40;1.10;;;25.50;56.60;;;;;;5073317;28;20460;-82
2022/05/14 08:49:21;;;;;;;1.20;1.03;;;25.50;56.60;;;;;;5073573;28;20441;-83
2022/05/14 08:51:51;;;;;;;1.93;1.10;;;25.50;56.60;;;;;;5073351;28;20441;-83
2022/05/14 08:54:19;;;;;;;1.20;1.10;;;25.50;56.60;;;;;;5073666;28;20805;-85
2022/05/14 08:56:52;;;;;;;1.17;1.00;;;25.60;56.70;;;;;;5073130;28;20497;-83
2022/05/14 08:59:44;;;;;;;1.20;1.00;;;25.60;56.70;;;;;;5073277;28;20452;-83
2022/05/14 09:02:15;;;;;;;1.20;1.10;;;25.60;56.60;;;;;;5073683;28;20456;-83
2022/05/14 09:04:44;;;;;;;1.20;1.10;;;25.60;56.70;;;;;;5073116;28;20437;-83
2022/05/14 09:07:12;;;;;;;1.30;1.07;;;25.60;56.70;;;;;;5073385;28;20834;-84
2022/05/14 09:09:48;;;;;;;1.50;1.40;;;25.60;56.70;;;;;;5072954;28;20800;-82
2022/05/14 09:12:18;;;;;;;1.70;1.60;;;25.70;56.70;;;;;;5073176;28;20506;-82
2022/05/14 09:14:46;;;;;;;1.10;0.90;;;25.70;56.80;;;;;;5073263;28;20461;-83
2022/05/14 09:17:15;;;;;;;1.10;1.00;;;25.70;56.70;;;;;;5072757;28;20490;-83
2022/05/14 09:19:45;;;;;;;1.53;1.10;;;25.70;56.80;;;;;;5073033;28;20554;-83
2022/05/14 09:22:24;;;;;;;1.30;1.20;;;25.70;56.70;;;;;;5073221;28;20436;-83
2022/05/14 09:24:53;;;;;;;1.30;1.20;;;25.80;56.80;;;;;;5072958;28;20436;-83
2022/05/14 09:27:27;;;;;;;1.83;1.00;;;25.90;56.90;;;;;;5073207;28;20439;-82
2022/05/14 09:29:56;;;;;;;2.43;1.20;;;25.80;56.80;;;;;;5072978;28;20441;-82
2022/05/14 09:32:34;;;;;;;1.30;1.20;;;25.80;56.90;;;;;;5073037;28;20437;-82
2022/05/14 09:35:13;;;;;;;1.50;1.03;;;25.80;56.80;;;;;;5073194;28;20441;-82
2022/05/14 09:37:41;;;;;;;1.10;0.90;;;25.80;56.80;;;;;;5072876;28;20491;-83
2022/05/14 09:40:13;;;;;;;1.33;1.03;;;25.80;57.40;;;;;;5072945;28;20521;-83
2022/05/14 09:42:43;;;;;;;1.40;1.30;;;25.80;56.90;;;;;;5074685;28;20515;-84
2022/05/14 09:45:23;;;;;;;1.77;1.20;;;25.90;56.90;;;;;;5076730;28;20428;-83
2022/05/14 09:47:50;;;;;;;1.10;1.00;;;26.00;56.90;;;;;;5076955;28;20467;-83
2022/05/14 09:50:22;;;;;;;1.80;1.17;;;25.90;56.90;;;;;;5076691;28;20440;-82
2022/05/14 09:52:58;;;;;;;1.40;1.03;;;26.00;56.90;;;;;;5076733;28;20445;-82
2022/05/14 09:55:52;;;;;;;1.40;1.00;;;26.00;56.90;;;;;;5076564;28;20472;-83
2022/05/14 09:58:28;;;;;;;1.20;1.10;;;26.00;56.90;;;;;;5072605;28;20491;-83
2022/05/14 10:01:01;;;;;;;1.50;1.17;;;26.00;56.90;;;;;;5076592;28;20440;-83
2022/05/14 10:03:38;;;;;;;1.63;1.13;;;26.00;56.90;;;;;;5076504;28;20831;-83
2022/05/14 10:06:17;;;;;;;1.27;1.00;;;26.10;56.90;;;;;;5076585;28;20440;-82
2022/05/14 10:09:01;;;;;;;1.53;1.00;;;26.10;56.90;;;;;;5076295;28;20444;-82
2022/05/14 10:11:32;;;;;;;1.40;1.10;;;26.10;56.90;;;;;;5075998;28;20437;-83
2022/05/14 10:14:14;;;;;;;1.10;1.00;;;26.10;56.90;;;;;;5076015;28;20475;-82
2022/05/14 10:16:55;;;;;;;1.50;1.27;;;26.10;56.90;;;;;;5076034;28;20480;-83
2022/05/14 10:19:36;;;;;;;1.60;1.17;;;26.10;56.90;;;;;;5076249;28;20448;-85
2022/05/14 10:22:13;;;;;;;1.10;0.80;;;26.20;56.90;;;;;;5058181;28;20490;-83
2022/05/14 10:27:50;;;;;;;1.53;1.43;;;26.20;56.90;;;;;;5076119;28;20420;-83
2022/05/14 10:30:22;;;;;;;1.53;0.93;;;26.20;56.90;;;;;;5075917;28;20441;-83
2022/05/14 10:32:53;;;;;;;1.30;1.00;;;26.20;56.80;;;;;;5075975;28;20449;-82
2022/05/14 10:35:25;;;;;;;1.10;0.90;;;26.20;56.80;;;;;;5075973;28;20436;-82
2022/05/14 10:37:56;;;;;;;1.40;1.30;;;26.20;56.80;;;;;;5075889;28;20484;-82
2022/05/14 10:40:29;;;;;;;2.13;1.27;;;26.20;56.80;;;;;;5075899;28;20788;-83
2022/05/14 10:43:21;;;;;;;1.20;0.90;;;26.30;56.90;;;;;;5075855;28;20441;-83
2022/05/14 10:45:50;;;;;;;1.10;0.90;;;26.30;56.80;;;;;;5075626;28;20524;-83
2022/05/14 10:48:30;;;;;;;1.27;1.17;;;26.30;56.80;;;;;;5075425;28;20556;-87
2022/05/14 10:50:57;;;;;;;1.20;1.07;;;26.20;56.80;;;;;;5075608;28;20440;-83
2022/05/14 10:53:25;;;;;;;1.20;1.10;;;26.30;56.90;;;;;;5074680;28;20799;-82
2022/05/14 10:56:03;;;;;;;1.23;0.90;;;26.30;56.90;;;;;;5074950;28;20444;-83
2022/05/14 10:58:42;;;;;;;1.40;1.00;;;26.20;56.80;;;;;;5075483;28;20571;-82
2022/05/14 11:01:29;;;;;;;1.30;1.00;;;26.30;56.80;;;;;;5075515;28;20754;-82
2022/05/14 11:03:58;;;;;;;1.37;0.90;;;26.30;56.80;;;;;;5076165;28;20440;-81
2022/05/14 11:06:30;;;;;;;1.20;1.03;;;26.20;56.90;;;;;;5075239;28;20441;-81
2022/05/14 11:08:58;;;;;;;1.57;1.17;;;26.30;56.90;;;;;;5075386;28;20440;-81
2022/05/14 11:11:27;;;;;;;1.20;1.00;;;26.30;56.90;;;;;;5075193;28;20781;-81
2022/05/14 11:14:03;;;;;;;1.20;0.90;;;26.30;56.90;;;;;;5074982;28;20789;-82
2022/05/14 11:16:43;;;;;;;1.80;1.07;;;26.30;57.00;;;;;;5074932;28;20444;-81
2022/05/14 11:19:11;;;;;;;1.87;1.53;;;26.50;56.90;;;;;;5075385;28;20537;-82
2022/05/14 11:21:41;;;;;;;1.70;1.27;;;26.40;56.90;;;;;;5075033;28;20468;-81
2022/05/14 11:24:12;;;;;;;1.30;1.07;;;26.50;57.00;;;;;;5075119;28;20437;-82
2022/05/14 11:26:49;;;;;;;1.10;1.00;;;26.50;56.90;;;;;;5075056;28;20495;-83
2022/05/14 11:29:19;;;;;;;1.20;1.10;;;26.50;56.90;;;;;;5075108;28;20463;-82
2022/05/14 11:32:02;;;;;;;1.10;0.90;;;26.50;56.90;;;;;;5074873;28;20441;-85
2022/05/14 11:34:29;;;;;;;1.30;1.00;;;26.50;56.80;;;;;;5074915;28;20495;-82
2022/05/14 11:36:58;;;;;;;1.20;0.83;;;26.50;56.90;;;;;;5074878;28;20959;-84
2022/05/14 11:39:30;;;;;;;1.10;1.00;;;26.50;56.90;;;;;;5074692;28;20453;-85
2022/05/14 11:42:11;;;;;;;1.10;0.97;;;26.60;57.00;;;;;;5074697;28;20494;-83
2022/05/14 11:44:45;;;;;;;1.10;0.97;;;26.50;56.90;;;;;;5074936;28;20444;-83
2022/05/14 11:47:41;;;;;;;1.50;1.40;;;26.50;56.90;;;;;;5074518;28;20459;-82
2022/05/14 11:50:08;;;;;;;1.27;1.17;;;26.60;56.90;;;;;;5074304;28;20542;-82
2022/05/14 11:52:41;;;;;;;1.30;1.00;;;26.60;57.00;;;;;;5074318;28;20447;-83
2022/05/14 11:55:14;;;;;;;1.30;1.00;;;26.60;57.00;;;;;;5074259;28;20507;-82
2022/05/14 11:57:45;;;;;;;1.23;1.10;;;26.60;57.00;;;;;;5074324;28;20481;-84
2022/05/14 12:00:16;;;;;;;1.87;1.10;;;26.60;57.00;;;;;;5074336;28;20534;-82
2022/05/14 12:02:49;;;;;;;1.60;1.07;;;26.60;57.00;;;;;;5074333;28;20454;-82
2022/05/14 12:05:18;;;;;;;1.20;1.10;;;26.60;57.00;;;;;;5073661;28;20437;-83
2022/05/14 12:08:02;;;;;;;1.20;1.10;;;26.60;57.00;;;;;;5073990;28;20441;-82
2022/05/14 12:10:38;;;;;;;1.30;1.20;;;26.60;57.00;;;;;;5074105;28;20448;-83
2022/05/14 12:13:16;;;;;;;2.10;1.20;;;26.60;57.00;;;;;;5074092;28;20440;-83
2022/05/14 12:15:48;;;;;;;1.37;1.27;;;26.70;57.00;;;;;;5073913;28;20530;-82
2022/05/14 12:18:15;;;;;;;1.37;1.10;;;26.70;57.10;;;;;;5073830;28;20500;-86
2022/05/14 12:20:44;;;;;;;1.37;1.00;;;26.60;57.00;;;;;;5056051;28;20441;-82
2022/05/14 12:23:16;;;;;;;2.47;1.20;;;26.60;57.00;;;;;;5074005;28;20429;-82
2022/05/14 12:25:47;;;;;;;1.60;1.33;;;26.60;57.00;;;;;;5073844;28;20505;-82
2022/05/14 12:28:20;;;;;;;1.40;1.10;;;26.60;57.00;;;;;;5073850;28;20449;-83
2022/05/14 12:33:39;;;;;;;4.60;1.20;;;26.70;57.10;;;;;;5073786;28;20421;-82
2022/05/14 12:36:08;;;;;;;1.93;1.33;;;26.60;57.00;;;;;;5073556;28;20801;-83
2022/05/14 12:38:37;;;;;;;1.80;1.30;;;26.70;57.10;;;;;;5073367;28;20530;-83
2022/05/14 12:41:08;;;;;;;1.30;1.20;;;26.70;57.10;;;;;;5073740;28;20437;-84
2022/05/14 12:43:35;;;;;;;1.53;1.20;;;26.70;57.10;;;;;;5073746;28;20445;-82
2022/05/14 12:46:06;;;;;;;1.30;1.20;;;26.70;57.40;;;;;;5073426;28;20448;-83
2022/05/14 12:48:43;;;;;;;1.10;1.00;;;26.70;57.00;;;;;;5073297;28;20461;-83
2022/05/14 12:51:10;;;;;;;1.60;1.20;;;26.90;57.10;;;;;;5073473;28;20444;-84
2022/05/14 12:53:40;;;;;;;1.43;1.33;;;26.70;57.00;;;;;;5073357;28;20451;-83
2022/05/14 12:56:09;;;;;;;2.13;1.30;;;26.80;57.10;;;;;;5073445;28;20449;-83
2022/05/14 12:58:38;;;;;;;1.40;1.20;;;26.80;57.00;;;;;;5073250;28;20484;-83
2022/05/14 13:01:06;;;;;;;1.50;1.33;;;26.80;57.10;;;;;;5073221;28;20445;-86
2022/05/14 13:03:39;;;;;;;1.10;0.97;;;26.80;57.10;;;;;;5073210;28;20836;-83
2022/05/14 13:06:09;;;;;;;1.30;1.17;;;26.80;57.00;;;;;;5073801;28;20522;-82
2022/05/14 13:08:42;;;;;;;1.63;1.53;;;26.80;57.10;;;;;;5073158;28;20790;-83
2022/05/14 13:11:15;;;;;;;1.53;1.43;;;26.80;57.10;;;;;;5055476;28;20441;-83
2022/05/14 13:13:45;;;;;;;1.50;1.40;;;26.80;57.70;;;;;;5073011;28;20443;-82
2022/05/14 13:16:13;;;;;;;1.40;1.30;;;26.80;57.00;;;;;;5072780;28;20433;-83
2022/05/14 13:18:44;;;;;;;1.50;1.20;;;26.80;57.10;;;;;;5072419;28;20488;-83
2022/05/14 13:21:19;;;;;;;1.40;1.20;;;26.80;57.10;;;;;;5073091;28;20502;-83
2022/05/14 13:23:55;;;;;;;1.50;1.30;;;26.80;57.10;;;;;;5073194;28;20498;-83
2022/05/14 13:26:33;;;;;;;2.03;1.27;;;26.80;57.10;;;;;;5072876;28;20441;-85